Latest Weather Observations for Badgerys Creek

IDN60801

Issued at 10:03 am EST Sunday 25 September 2016 (issued every 30 minutes, with the page automatically refreshed every 10 minutes)

About weather observations | Map of weather stations | Latest weather observations for NSW | Other Formats
Station Details ID: 067108 Name: BADGERYS CREEK AWS Lat: -33.90 Lon: 150.73 Height: 81.2 m
Data from the previous 72 hours. | See also: Recent months at Badgerys Creek
Date/Time
EST
Temp
°C
App
Temp
°C
Dew
Point
°C
Rel
Hum
%
Delta-T
°C
Wind Press
QNH
hPa
Press
MSL
hPa
Rain since
9am
mm
Dir  Spd
km/h
Gust
km/h
Spd
kts
Gust
kts
25/10:00am 16.4 16.2 11.8 74 2.5 N 4 6 2 3 1006.3 1006.2 0.0
25/09:30am 15.7 15.5 11.7 77 2.2 N 4 6 2 3 1006.6 1006.5 0.0
25/09:00am 15.4 14.8 12.3 82 1.7 N 7 9 4 5 1006.7 1006.6 0.0
25/08:30am 15.5 15.2 11.3 76 2.3 NNW 4 6 2 3 1006.7 1006.6 0.0
25/08:00am 15.3 14.8 10.9 75 2.4 NNW 4 6 2 3 1006.6 1006.5 0.0
25/07:30am 14.9 14.4 11.9 82 1.6 N 6 7 3 4 1006.7 1006.6 0.0
25/07:00am 13.3 11.9 11.0 86 1.2 N 9 11 5 6 1006.6 1006.5 0.0
25/06:30am 12.7 11.6 10.8 88 1.0 N 7 9 4 5 1006.5 1006.4 0.0
25/06:00am 12.7 11.7 10.2 85 1.3 N 6 7 3 4 1006.4 1006.3 0.0
25/05:30am 13.1 11.8 10.1 82 1.6 N 7 9 4 5 1006.2 1006.1 0.0
25/05:00am 12.9 11.7 10.3 84 1.4 N 7 9 4 5 1006.1 1006.0 0.0
25/04:30am 13.6 11.1 9.8 78 2.0 NW 13 17 7 9 1005.9 1005.8 0.0
25/04:00am 13.8 11.5 10.6 81 1.7 WNW 13 20 7 11 1006.2 1006.1 0.0
25/03:30am 13.2 13.4 13.2 100 0.0 NE 4 7 2 4 1006.4 1006.3 0.0
25/03:00am 13.5 13.5 13.5 100 0.0 NE 6 7 3 4 1006.3 1006.2 0.0
25/02:30am 13.2 13.1 13.2 100 0.0 NE 6 7 3 4 1006.1 1006.0 0.0
25/02:00am 13.1 13.3 12.9 99 0.1 E 4 11 2 6 1006.2 1006.1 0.0
25/01:30am 13.7 14.1 13.7 100 0.0 ESE 4 6 2 3 1006.5 1006.4 0.0
25/01:00am 13.8 14.2 13.6 99 0.1 ESE 4 6 2 3 1006.8 1006.7 0.0
25/12:30am 13.8 14.1 13.5 98 0.2 ESE 4 4 2 2 1007.2 1007.1 0.0
25/12:00am 13.9 13.9 13.7 99 0.1 ESE 6 7 3 4 1007.7 1007.6 0.0
 
Date/Time
EST
Temp
°C
App
Temp
°C
Dew
Point
°C
Rel
Hum
%
Delta-T
°C
Wind Press
QNH
hPa
Press
MSL
hPa
Rain since
9am
mm
Dir  Spd
km/h
Gust
km/h
Spd
kts
Gust
kts
24/11:30pm 13.9 14.3 13.6 98 0.2 ESE 4 6 2 3 1007.5 1007.4 0.0
24/11:00pm 14.1 14.1 13.6 97 0.3 ESE 6 7 3 4 1007.7 1007.6 0.0
24/10:30pm 14.1 14.1 13.6 97 0.3 ESE 6 7 3 4 1008.1 1008.0 0.0
24/10:00pm 14.2 14.0 13.1 93 0.6 ESE 6 6 3 3 1007.9 1007.8 0.0
24/09:30pm 14.4 15.3 13.0 91 0.8 CALM 0 0 0 0 1008.1 1008.0 0.0
24/09:00pm 15.5 16.5 13.2 86 1.3 CALM 0 0 0 0 1008.4 1008.3 0.0
24/08:30pm 16.3 17.3 13.2 82 1.7 CALM 0 0 0 0 1008.5 1008.4 0.0
24/08:00pm 17.2 17.9 13.5 79 2.1 ESE 2 2 1 1 1008.7 1008.6 0.0
24/07:30pm 17.2 17.1 13.3 78 2.2 ESE 6 6 3 3 1008.5 1008.4 0.0
24/07:00pm 17.4 17.2 13.1 76 2.4 ESE 6 9 3 5 1008.0 1007.9 0.0
24/06:30pm 17.8 17.8 12.5 71 3.0 ENE 4 6 2 3 1008.1 1008.0 0.0
24/06:00pm 18.1 17.3 12.8 71 3.0 ENE 9 13 5 7 1007.8 1007.7 0.0
24/05:30pm 18.6 16.8 12.1 66 3.6 ENE 13 20 7 11 1007.4 1007.3 0.0
24/05:00pm 19.7 17.9 12.2 62 4.2 ENE 13 19 7 10 1007.1 1007.0 0.0
24/04:30pm 20.8 19.4 13.5 63 4.2 E 13 19 7 10 1006.9 1006.8 0.0
24/04:00pm 20.3 18.6 13.5 65 3.9 E 15 24 8 13 1007.0 1006.9 0.0
24/03:30pm 21.6 20.0 11.6 53 5.6 NE 11 15 6 8 1007.0 1006.9 0.0
24/03:00pm 23.6 23.1 12.6 50 6.3 ENE 7 13 4 7 1007.0 1006.9 0.0
24/02:30pm 23.5 23.4 12.2 49 6.4 N 4 9 2 5 1007.2 1007.1 0.0
24/02:00pm 22.8 21.3 11.8 50 6.2 NE 11 19 6 10 1007.5 1007.4 0.0
24/01:30pm 22.8 21.4 10.9 47 6.6 NNE 9 17 5 9 1008.2 1008.1 0.0
24/01:00pm 22.6 21.9 12.0 51 6.0 ENE 7 15 4 8 1008.8 1008.7 0.0
24/12:30pm 22.2 21.1 11.9 52 5.8 NNW 9 13 5 7 1009.3 1009.2 0.0
24/12:00pm 21.9 21.2 11.9 53 5.6 NNE 7 15 4 8 1009.7 1009.6 0.0
24/11:30am 21.6 21.1 12.7 57 5.1 N 7 11 4 6 1010.3 1010.2 0.0
24/11:00am 19.7 18.9 11.2 58 4.7 NE 6 11 3 6 1010.9 1010.8 0.0
24/10:30am 20.5 20.0 12.0 58 4.8 ENE 6 7 3 4 1011.3 1011.2 0.0
24/10:00am 20.1 19.8 12.6 62 4.2 E 6 11 3 6 1011.8 1011.7 0.0
24/09:30am 19.2 19.1 12.0 63 4.0 NW 4 7 2 4 1012.2 1012.1 0.0
24/09:00am 17.5 16.9 11.8 69 3.1 SW 6 7 3 4 1012.5 1012.4 0.0
24/08:30am 16.4 15.8 12.4 77 2.2 W 7 9 4 5 1012.8 1012.7 0.0
24/08:00am 15.1 14.8 12.8 86 1.3 W 6 9 3 5 1013.0 1012.9 0.0
24/07:30am 12.7 12.3 12.5 99 0.1 W 6 9 3 5 1013.1 1013.0 0.0
24/07:00am 10.6 10.1 10.6 100 0.0 W 4 6 2 3 1012.9 1012.8 0.0
24/06:30am 9.3 8.4 9.3 100 0.0 W 4 6 2 3 1012.5 1012.4 0.0
24/06:00am 8.5 7.4 8.5 100 0.0 W 4 6 2 3 1012.3 1012.2 0.0
24/05:30am 8.4 7.7 8.4 100 0.0 W 2 4 1 2 1012.0 1011.9 0.0
24/05:00am 7.9 7.4 7.8 99 0.0 CALM 0 4 0 2 1011.8 1011.7 0.0
24/04:30am 9.4 8.5 9.4 100 0.0 W 4 6 2 3 1011.8 1011.7 0.0
24/04:00am 9.4 8.5 9.4 100 0.0 W 4 4 2 2 1011.8 1011.7 0.0
24/03:30am 9.3 8.4 9.3 100 0.0 W 4 6 2 3 1011.7 1011.6 0.0
24/03:00am 9.8 9.8 9.7 99 0.1 CALM 0 0 0 0 1011.8 1011.7 0.0
24/02:30am 10.1 9.4 10.1 100 0.0 W 4 6 2 3 1011.7 1011.6 0.0
24/02:00am 9.7 8.5 9.7 100 0.0 W 6 6 3 3 1011.7 1011.6 0.0
24/01:30am 9.9 8.8 9.8 99 0.1 W 6 6 3 3 1011.9 1011.8 0.0
24/01:00am 10.0 8.9 9.9 99 0.1 W 6 7 3 4 1012.1 1012.0 0.0
24/12:30am 10.4 9.3 9.8 96 0.3 W 6 6 3 3 1012.2 1012.1 0.0
24/12:00am 11.0 10.3 9.9 93 0.6 W 4 9 2 5 1012.3 1012.2 0.0
 
Date/Time
EST
Temp
°C
App
Temp
°C
Dew
Point
°C
Rel
Hum
%
Delta-T
°C
Wind Press
QNH
hPa
Press
MSL
hPa
Rain since
9am
mm
Dir  Spd
km/h
Gust
km/h
Spd
kts
Gust
kts
23/11:30pm 11.4 10.8 10.3 93 0.6 W 4 6 2 3 1012.3 1012.2 0.0
23/11:00pm 11.4 10.5 10.5 94 0.5 W 6 7 3 4 1012.5 1012.4 0.0
23/10:30pm 11.7 11.1 10.4 92 0.7 W 4 6 2 3 1012.5 1012.4 0.0
23/10:00pm 13.5 13.1 11.0 85 1.3 W 4 6 2 3 1012.5 1012.4 0.0
23/09:30pm 13.0 12.2 10.9 87 1.1 W 6 6 3 3 1012.7 1012.6 0.0
23/09:00pm 13.5 12.7 10.9 84 1.4 WNW 6 7 3 4 1012.7 1012.6 0.0
23/08:30pm 13.6 13.1 10.8 83 1.5 ESE 4 4 2 2 1012.6 1012.5 0.0
23/08:00pm 15.0 14.9 10.8 76 2.2 ESE 2 6 1 3 1012.4 1012.3 0.0
23/07:30pm 15.5 14.7 11.1 75 2.4 ESE 6 9 3 5 1012.2 1012.1 0.0
23/07:00pm 16.5 15.6 10.6 68 3.2 SE 6 7 3 4 1011.9 1011.8 0.0
23/06:30pm 16.9 15.8 10.7 67 3.3 SE 7 9 4 5 1011.6 1011.5 0.0
23/06:00pm 18.1 16.7 11.0 63 3.9 SSE 9 15 5 8 1011.3 1011.2 0.0
23/05:30pm 18.7 17.3 11.0 61 4.2 SSE 9 13 5 7 1011.0 1010.9 0.0
23/05:00pm 19.1 17.8 11.2 60 4.3 S 9 15 5 8 1010.6 1010.5 0.0
23/04:30pm 19.3 17.6 11.1 59 4.5 SSE 11 17 6 9 1010.4 1010.3 0.0
23/04:00pm 19.7 17.5 10.7 56 4.9 SSE 13 22 7 12 1010.3 1010.2 0.0
23/03:30pm 20.7 17.6 10.2 51 5.7 S 17 28 9 15 1010.2 1010.1 0.0
23/03:00pm 21.5 18.3 11.2 52 5.7 S 19 28 10 15 1010.3 1010.2 0.0
23/02:30pm 20.6 17.0 10.4 52 5.6 SSW 20 28 11 15 1010.6 1010.5 0.0
23/02:00pm 20.6 17.2 10.7 53 5.4 SSW 19 30 10 16 1010.6 1010.5 0.0
23/01:30pm 20.6 17.2 10.7 53 5.4 SSW 19 30 10 16 1010.6 1010.5 0.0
23/01:00pm 20.9 16.9 10.4 51 5.7 S 22 35 12 19 1010.7 1010.6 0.0
23/12:30pm 20.9 17.3 10.7 52 5.6 SSW 20 32 11 17 1010.8 1010.7 0.0
23/12:00pm 20.2 16.2 10.3 53 5.4 SSW 22 30 12 16 1011.3 1011.2 0.0
23/11:30am 20.0 15.5 10.1 53 5.3 SW 24 35 13 19 1011.6 1011.5 0.0
23/11:00am 19.4 14.5 10.1 55 5.0 SW 26 37 14 20 1011.8 1011.7 0.0
23/10:30am 19.6 14.4 10.3 55 5.0 SW 28 41 15 22 1011.7 1011.6 0.0
23/10:00am 19.2 14.0 10.2 56 4.8 SSW 28 44 15 24 1011.8 1011.7 0.0
23/09:30am 18.6 13.3 9.9 57 4.6 SW 28 44 15 24 1012.0 1011.9 0.0
23/09:04am 18.1 12.7 9.5 57 4.5 SW 28 54 15 29 1012.0 1011.9 0.0
23/09:00am 18.3 13.1 10.2 59 4.3 SW 28 44 15 24 1012.1 1012.0 0.0
23/08:30am 17.4 13.1 9.3 59 4.2 SW 22 33 12 18 1012.0 1011.9 0.0
23/08:00am 16.3 11.9 8.8 61 3.9 SW 22 32 12 17 1012.0 1011.9 0.0
23/07:30am 15.4 11.9 8.9 65 3.3 SW 17 24 9 13 1012.0 1011.9 0.0
23/07:00am 14.9 11.7 8.6 66 3.2 SW 15 24 8 13 1011.9 1011.8 0.0
23/06:30am 14.4 11.3 8.8 69 2.8 SW 15 20 8 11 1011.5 1011.4 0.0
23/06:00am 13.1 10.3 8.6 74 2.3 WSW 13 19 7 10 1011.3 1011.2 0.0
23/05:30am 12.9 10.0 8.2 73 2.3 WSW 13 19 7 10 1010.8 1010.7 0.0
23/05:00am 12.8 9.5 8.1 73 2.3 SW 15 17 8 9 1010.3 1010.2 0.0
23/04:30am 12.9 10.0 8.0 72 2.4 SW 13 15 7 8 1009.7 1009.6 0.0
23/04:00am 13.1 9.5 8.2 72 2.4 SW 17 22 9 12 1009.2 1009.1 0.0
23/03:30am 13.5 10.2 7.9 69 2.8 SW 15 20 8 11 1009.4 1009.3 0.0
23/03:00am 14.3 9.7 8.0 66 3.2 SW 22 28 12 15 1009.4 1009.3 0.0
23/02:30am 14.3 9.7 8.0 66 3.1 WSW 22 28 12 15 1009.6 1009.5 0.0
23/02:00am 14.4 10.7 8.1 66 3.2 WSW 17 22 9 12 1009.7 1009.6 0.0
23/01:30am 14.6 11.7 8.3 66 3.2 WSW 13 24 7 13 1009.9 1009.8 0.0
23/01:00am 14.8 11.2 8.3 65 3.3 WSW 17 24 9 13 1009.9 1009.8 0.0
23/12:30am 14.8 10.8 8.3 65 3.3 WSW 19 26 10 14 1009.9 1009.8 0.0
23/12:00am 15.1 11.2 8.6 65 3.3 WSW 19 28 10 15 1009.8 1009.7 0.0
 
Date/Time
EST
Temp
°C
App
Temp
°C
Dew
Point
°C
Rel
Hum
%
Delta-T
°C
Wind Press
QNH
hPa
Press
MSL
hPa
Rain since
9am
mm
Dir  Spd
km/h
Gust
km/h
Spd
kts
Gust
kts
22/11:30pm 15.3 11.4 8.8 65 3.3 WSW 19 32 10 17 1009.7 1009.6 0.0
22/11:00pm 15.4 11.4 8.9 65 3.3 WSW 20 30 11 16 1009.8 1009.7 0.0
22/10:30pm 15.4 11.4 9.1 66 3.2 WSW 20 28 11 15 1009.7 1009.6 0.0
22/10:00pm 15.2 11.8 9.1 67 3.1 WSW 17 22 9 12 1009.6 1009.5 0.0
22/09:30pm 15.6 11.9 9.5 67 3.2 WSW 19 28 10 15 1009.6 1009.5 0.0
22/09:00pm 15.5 11.7 9.2 66 3.3 WSW 19 28 10 15 1009.4 1009.3 0.0
22/08:30pm 15.8 12.4 9.2 65 3.4 WSW 17 24 9 13 1009.3 1009.2 0.0
22/08:00pm 15.9 12.5 9.3 65 3.4 WSW 17 32 9 17 1009.2 1009.1 0.0
22/07:30pm 15.8 12.5 9.5 66 3.3 SW 17 22 9 12 1009.2 1009.1 0.0
22/07:00pm 15.8 12.8 9.2 65 3.4 SW 15 22 8 12 1009.0 1008.9 0.0
22/06:30pm 16.4 12.4 9.1 62 3.8 WSW 20 28 11 15 1008.6 1008.5 0.0
22/06:00pm 16.6 12.6 9.1 61 3.9 WSW 20 28 11 15 1008.0 1007.9 0.0
22/05:30pm 17.4 13.0 8.8 57 4.5 WSW 22 43 12 23 1007.7 1007.6 0.0
22/05:00pm 17.6 13.2 9.0 57 4.5 WSW 22 32 12 17 1007.2 1007.1 0.0
22/04:30pm 17.5 14.1 9.2 58 4.3 W 17 28 9 15 1006.8 1006.7 0.0
22/04:00pm 17.5 13.7 8.9 57 4.5 WSW 19 33 10 18 1006.6 1006.5 0.0
22/03:30pm 17.8 11.9 8.9 56 4.6 W 30 39 16 21 1006.4 1006.3 0.0
22/03:00pm 17.9 11.6 9.0 56 4.7 WSW 32 46 17 25 1006.4 1006.3 0.0
22/02:48pm 17.9 12.2 8.5 54 4.9 WSW 28 48 15 26 1006.4 1006.3 0.0
22/02:30pm 18.1 13.7 8.9 55 4.8 W 22 37 12 20 1006.5 1006.4 0.0
22/02:00pm 19.1 14.0 9.3 53 5.2 WSW 26 43 14 23 1006.7 1006.6 0.0
22/01:30pm 17.2 12.4 8.9 58 4.3 SW 24 37 13 20 1006.9 1006.8 0.0
22/01:00pm 17.5 13.5 9.2 58 4.4 WSW 20 30 11 16 1006.9 1006.8 0.0
22/12:30pm 17.5 13.2 9.2 58 4.3 W 22 32 12 17 1006.9 1006.8 0.0
22/12:00pm 18.6 13.3 9.7 56 4.7 WSW 28 39 15 21 1006.9 1006.8 0.0
22/11:30am 19.3 15.3 10.6 57 4.7 WSW 22 39 12 21 1006.9 1006.8 0.0
22/11:00am 17.6 12.7 10.0 61 4.0 WSW 26 35 14 19 1007.0 1006.9 0.0
22/10:30am 18.6 15.6 10.7 60 4.3 WSW 17 26 9 14 1007.0 1006.9 0.0

Other Formats:

Comma delimited format used in spreadsheet applications
http://www.bom.gov.au/fwo/IDN60801/IDN60801.94752.axf

JavaScript Object Notation format (JSON) in row-major order
http://www.bom.gov.au/fwo/IDN60801/IDN60801.94752.json